sensor_id;sensor_type;location;lat;lon;timestamp;P1;durP1;ratioP1;P2;durP2;ratioP2
45136;SDS011;30894;51.740;19.498;2022-09-09T00:00:20;0.00;;;0.00;;
45136;SDS011;30894;51.740;19.498;2022-09-09T00:03:19;0.00;;;0.00;;
45136;SDS011;30894;51.740;19.498;2022-09-09T00:05:55;0.00;;;0.00;;
45136;SDS011;30894;51.740;19.498;2022-09-09T00:14:18;0.00;;;0.00;;
45136;SDS011;30894;51.740;19.498;2022-09-09T00:16:55;0.10;;;0.10;;
45136;SDS011;30894;51.740;19.498;2022-09-09T00:22:19;0.00;;;0.00;;
45136;SDS011;30894;51.740;19.498;2022-09-09T00:24:52;0.10;;;0.10;;
45136;SDS011;30894;51.740;19.498;2022-09-09T00:27:29;0.00;;;0.00;;
45136;SDS011;30894;51.740;19.498;2022-09-09T00:32:50;0.00;;;0.00;;
45136;SDS011;30894;51.740;19.498;2022-09-09T00:38:03;0.00;;;0.00;;
45136;SDS011;30894;51.740;19.498;2022-09-09T00:40:49;0.10;;;0.10;;
45136;SDS011;30894;51.740;19.498;2022-09-09T00:51:46;0.00;;;0.00;;
45136;SDS011;30894;51.740;19.498;2022-09-09T00:57:32;0.00;;;0.00;;
45136;SDS011;30894;51.740;19.498;2022-09-09T01:05:29;0.00;;;0.00;;
45136;SDS011;30894;51.740;19.498;2022-09-09T01:08:33;0.10;;;0.10;;
45136;SDS011;30894;51.740;19.498;2022-09-09T01:11:43;0.00;;;0.00;;
45136;SDS011;30894;51.740;19.498;2022-09-09T01:14:29;0.10;;;0.10;;
45136;SDS011;30894;51.740;19.498;2022-09-09T01:17:11;0.00;;;0.00;;
45136;SDS011;30894;51.740;19.498;2022-09-09T01:22:50;0.10;;;0.10;;
45136;SDS011;30894;51.740;19.498;2022-09-09T01:25:29;0.00;;;0.00;;
45136;SDS011;30894;51.740;19.498;2022-09-09T01:28:34;0.00;;;0.00;;
45136;SDS011;30894;51.740;19.498;2022-09-09T01:31:03;0.00;;;0.00;;
45136;SDS011;30894;51.740;19.498;2022-09-09T01:33:31;0.10;;;0.10;;
45136;SDS011;30894;51.740;19.498;2022-09-09T01:35:59;0.00;;;0.00;;
45136;SDS011;30894;51.740;19.498;2022-09-09T01:38:33;0.10;;;0.10;;
45136;SDS011;30894;51.740;19.498;2022-09-09T01:41:01;0.00;;;0.00;;
45136;SDS011;30894;51.740;19.498;2022-09-09T01:43:28;0.00;;;0.00;;
45136;SDS011;30894;51.740;19.498;2022-09-09T01:45:55;0.00;;;0.00;;
45136;SDS011;30894;51.740;19.498;2022-09-09T01:48:25;0.00;;;0.00;;
45136;SDS011;30894;51.740;19.498;2022-09-09T01:50:52;0.00;;;0.00;;
45136;SDS011;30894;51.740;19.498;2022-09-09T01:53:18;0.10;;;0.10;;
45136;SDS011;30894;51.740;19.498;2022-09-09T02:07:00;0.00;;;0.00;;
45136;SDS011;30894;51.740;19.498;2022-09-09T02:09:26;0.00;;;0.00;;
45136;SDS011;30894;51.740;19.498;2022-09-09T02:12:14;0.00;;;0.00;;
45136;SDS011;30894;51.740;19.498;2022-09-09T02:14:49;0.00;;;0.00;;
45136;SDS011;30894;51.740;19.498;2022-09-09T02:17:24;0.00;;;0.00;;
45136;SDS011;30894;51.740;19.498;2022-09-09T02:20:06;0.00;;;0.00;;
45136;SDS011;30894;51.740;19.498;2022-09-09T02:25:05;0.00;;;0.00;;
45136;SDS011;30894;51.740;19.498;2022-09-09T02:27:35;0.00;;;0.00;;
45136;SDS011;30894;51.740;19.498;2022-09-09T02:30:02;0.00;;;0.00;;
45136;SDS011;30894;51.740;19.498;2022-09-09T02:32:30;0.00;;;0.00;;
45136;SDS011;30894;51.740;19.498;2022-09-09T02:35:02;0.00;;;0.00;;
45136;SDS011;30894;51.740;19.498;2022-09-09T02:37:37;0.00;;;0.00;;
45136;SDS011;30894;51.740;19.498;2022-09-09T02:40:05;0.00;;;0.00;;
45136;SDS011;30894;51.740;19.498;2022-09-09T02:42:41;0.00;;;0.00;;
45136;SDS011;30894;51.740;19.498;2022-09-09T02:45:10;0.00;;;0.00;;
45136;SDS011;30894;51.740;19.498;2022-09-09T02:50:17;0.10;;;0.10;;
45136;SDS011;30894;51.740;19.498;2022-09-09T02:55:56;0.00;;;0.00;;
45136;SDS011;30894;51.740;19.498;2022-09-09T02:58:29;0.00;;;0.00;;
45136;SDS011;30894;51.740;19.498;2022-09-09T03:00:56;0.00;;;0.00;;
45136;SDS011;30894;51.740;19.498;2022-09-09T03:03:23;0.00;;;0.00;;
45136;SDS011;30894;51.740;19.498;2022-09-09T03:05:49;0.00;;;0.00;;
45136;SDS011;30894;51.740;19.498;2022-09-09T03:08:15;0.08;;;0.08;;
45136;SDS011;30894;51.740;19.498;2022-09-09T03:10:42;0.00;;;0.00;;
45136;SDS011;30894;51.740;19.498;2022-09-09T03:13:08;0.00;;;0.00;;
45136;SDS011;30894;51.740;19.498;2022-09-09T03:15:34;0.00;;;0.00;;
45136;SDS011;30894;51.740;19.498;2022-09-09T03:18:00;0.00;;;0.00;;
45136;SDS011;30894;51.740;19.498;2022-09-09T03:20:27;0.00;;;0.00;;
45136;SDS011;30894;51.740;19.498;2022-09-09T03:22:55;0.00;;;0.00;;
45136;SDS011;30894;51.740;19.498;2022-09-09T03:25:21;0.00;;;0.00;;
45136;SDS011;30894;51.740;19.498;2022-09-09T03:27:49;0.10;;;0.10;;
45136;SDS011;30894;51.740;19.498;2022-09-09T03:30:22;0.00;;;0.00;;
45136;SDS011;30894;51.740;19.498;2022-09-09T03:32:52;0.00;;;0.00;;
45136;SDS011;30894;51.740;19.498;2022-09-09T03:35:18;0.00;;;0.00;;
45136;SDS011;30894;51.740;19.498;2022-09-09T03:37:45;0.00;;;0.00;;
45136;SDS011;30894;51.740;19.498;2022-09-09T03:40:11;0.00;;;0.00;;
45136;SDS011;30894;51.740;19.498;2022-09-09T03:42:38;0.00;;;0.00;;
45136;SDS011;30894;51.740;19.498;2022-09-09T03:45:05;0.00;;;0.00;;
45136;SDS011;30894;51.740;19.498;2022-09-09T03:47:34;0.03;;;0.03;;
45136;SDS011;30894;51.740;19.498;2022-09-09T03:50:00;0.00;;;0.00;;
45136;SDS011;30894;51.740;19.498;2022-09-09T03:52:26;0.00;;;0.00;;
45136;SDS011;30894;51.740;19.498;2022-09-09T03:54:52;0.00;;;0.00;;
45136;SDS011;30894;51.740;19.498;2022-09-09T03:57:19;0.00;;;0.00;;
45136;SDS011;30894;51.740;19.498;2022-09-09T03:59:46;0.00;;;0.00;;
45136;SDS011;30894;51.740;19.498;2022-09-09T04:02:12;0.00;;;0.00;;
45136;SDS011;30894;51.740;19.498;2022-09-09T04:04:38;0.00;;;0.00;;
45136;SDS011;30894;51.740;19.498;2022-09-09T04:07:05;0.00;;;0.00;;
45136;SDS011;30894;51.740;19.498;2022-09-09T04:09:32;0.00;;;0.00;;
45136;SDS011;30894;51.740;19.498;2022-09-09T04:11:58;0.10;;;0.10;;
45136;SDS011;30894;51.740;19.498;2022-09-09T04:14:24;0.00;;;0.00;;
45136;SDS011;30894;51.740;19.498;2022-09-09T04:16:53;0.00;;;0.00;;
45136;SDS011;30894;51.740;19.498;2022-09-09T04:19:18;0.00;;;0.00;;
45136;SDS011;30894;51.740;19.498;2022-09-09T04:21:45;0.10;;;0.10;;
45136;SDS011;30894;51.740;19.498;2022-09-09T04:24:10;0.00;;;0.00;;
45136;SDS011;30894;51.740;19.498;2022-09-09T04:26:36;0.10;;;0.10;;
45136;SDS011;30894;51.740;19.498;2022-09-09T04:29:04;0.00;;;0.00;;
45136;SDS011;30894;51.740;19.498;2022-09-09T04:31:32;0.00;;;0.00;;
45136;SDS011;30894;51.740;19.498;2022-09-09T04:33:58;0.10;;;0.10;;
45136;SDS011;30894;51.740;19.498;2022-09-09T04:36:30;0.00;;;0.00;;
45136;SDS011;30894;51.740;19.498;2022-09-09T04:38:59;0.00;;;0.00;;
45136;SDS011;30894;51.740;19.498;2022-09-09T04:41:26;0.00;;;0.00;;
45136;SDS011;30894;51.740;19.498;2022-09-09T04:43:53;0.00;;;0.00;;
45136;SDS011;30894;51.740;19.498;2022-09-09T04:46:20;0.00;;;0.00;;
45136;SDS011;30894;51.740;19.498;2022-09-09T04:48:48;0.10;;;0.10;;
45136;SDS011;30894;51.740;19.498;2022-09-09T04:51:15;0.10;;;0.10;;
45136;SDS011;30894;51.740;19.498;2022-09-09T04:53:41;0.10;;;0.10;;
45136;SDS011;30894;51.740;19.498;2022-09-09T04:56:11;0.00;;;0.00;;
45136;SDS011;30894;51.740;19.498;2022-09-09T04:58:40;0.00;;;0.00;;
45136;SDS011;30894;51.740;19.498;2022-09-09T05:01:18;0.05;;;0.05;;
45136;SDS011;30894;51.740;19.498;2022-09-09T05:03:47;0.10;;;0.10;;
45136;SDS011;30894;51.740;19.498;2022-09-09T05:06:15;0.00;;;0.00;;
45136;SDS011;30894;51.740;19.498;2022-09-09T05:08:43;0.00;;;0.00;;
45136;SDS011;30894;51.740;19.498;2022-09-09T05:11:29;0.00;;;0.00;;
45136;SDS011;30894;51.740;19.498;2022-09-09T05:13:57;0.05;;;0.05;;
45136;SDS011;30894;51.740;19.498;2022-09-09T05:16:23;0.00;;;0.00;;
45136;SDS011;30894;51.740;19.498;2022-09-09T05:18:49;0.00;;;0.00;;
45136;SDS011;30894;51.740;19.498;2022-09-09T05:21:16;0.03;;;0.03;;
45136;SDS011;30894;51.740;19.498;2022-09-09T05:23:44;0.10;;;0.10;;
45136;SDS011;30894;51.740;19.498;2022-09-09T05:26:16;0.00;;;0.00;;
45136;SDS011;30894;51.740;19.498;2022-09-09T05:28:44;0.00;;;0.00;;
45136;SDS011;30894;51.740;19.498;2022-09-09T05:31:11;0.00;;;0.00;;
45136;SDS011;30894;51.740;19.498;2022-09-09T05:33:40;0.00;;;0.00;;
45136;SDS011;30894;51.740;19.498;2022-09-09T05:36:10;0.00;;;0.00;;
45136;SDS011;30894;51.740;19.498;2022-09-09T05:38:44;0.10;;;0.10;;
45136;SDS011;30894;51.740;19.498;2022-09-09T05:41:11;0.00;;;0.00;;
45136;SDS011;30894;51.740;19.498;2022-09-09T05:43:38;0.00;;;0.00;;
45136;SDS011;30894;51.740;19.498;2022-09-09T05:46:05;0.00;;;0.00;;
45136;SDS011;30894;51.740;19.498;2022-09-09T05:48:36;0.00;;;0.00;;
45136;SDS011;30894;51.740;19.498;2022-09-09T05:51:08;0.10;;;0.10;;
45136;SDS011;30894;51.740;19.498;2022-09-09T05:53:37;0.00;;;0.00;;
45136;SDS011;30894;51.740;19.498;2022-09-09T05:56:05;0.00;;;0.00;;
45136;SDS011;30894;51.740;19.498;2022-09-09T05:58:36;0.10;;;0.10;;
45136;SDS011;30894;51.740;19.498;2022-09-09T06:01:03;0.00;;;0.00;;
45136;SDS011;30894;51.740;19.498;2022-09-09T06:03:35;0.03;;;0.03;;
45136;SDS011;30894;51.740;19.498;2022-09-09T06:06:04;0.10;;;0.10;;
45136;SDS011;30894;51.740;19.498;2022-09-09T06:08:37;0.10;;;0.10;;
45136;SDS011;30894;51.740;19.498;2022-09-09T06:11:06;0.08;;;0.08;;
45136;SDS011;30894;51.740;19.498;2022-09-09T06:13:36;0.10;;;0.10;;
45136;SDS011;30894;51.740;19.498;2022-09-09T06:16:04;0.00;;;0.00;;
45136;SDS011;30894;51.740;19.498;2022-09-09T06:18:33;0.00;;;0.00;;
45136;SDS011;30894;51.740;19.498;2022-09-09T06:21:00;0.10;;;0.10;;
45136;SDS011;30894;51.740;19.498;2022-09-09T06:23:30;0.10;;;0.10;;
45136;SDS011;30894;51.740;19.498;2022-09-09T06:26:04;0.10;;;0.10;;
45136;SDS011;30894;51.740;19.498;2022-09-09T06:28:36;0.10;;;0.10;;
45136;SDS011;30894;51.740;19.498;2022-09-09T06:31:04;0.00;;;0.00;;
45136;SDS011;30894;51.740;19.498;2022-09-09T06:33:33;0.00;;;0.00;;
45136;SDS011;30894;51.740;19.498;2022-09-09T06:36:04;0.10;;;0.10;;
45136;SDS011;30894;51.740;19.498;2022-09-09T06:38:31;0.00;;;0.00;;
45136;SDS011;30894;51.740;19.498;2022-09-09T06:40:58;0.10;;;0.10;;
45136;SDS011;30894;51.740;19.498;2022-09-09T06:43:25;0.05;;;0.05;;
45136;SDS011;30894;51.740;19.498;2022-09-09T06:45:55;0.10;;;0.10;;
45136;SDS011;30894;51.740;19.498;2022-09-09T06:48:26;0.10;;;0.10;;
45136;SDS011;30894;51.740;19.498;2022-09-09T06:53:52;0.10;;;0.10;;
45136;SDS011;30894;51.740;19.498;2022-09-09T06:56:33;0.10;;;0.10;;
45136;SDS011;30894;51.740;19.498;2022-09-09T06:59:03;0.10;;;0.10;;
45136;SDS011;30894;51.740;19.498;2022-09-09T07:01:32;0.10;;;0.10;;
45136;SDS011;30894;51.740;19.498;2022-09-09T07:04:01;0.10;;;0.10;;
45136;SDS011;30894;51.740;19.498;2022-09-09T07:06:30;0.10;;;0.10;;
45136;SDS011;30894;51.740;19.498;2022-09-09T07:08:58;0.10;;;0.10;;
45136;SDS011;30894;51.740;19.498;2022-09-09T07:11:33;0.10;;;0.10;;
45136;SDS011;30894;51.740;19.498;2022-09-09T07:14:04;0.10;;;0.10;;
45136;SDS011;30894;51.740;19.498;2022-09-09T07:16:30;2.42;;;1.70;;
45136;SDS011;30894;51.740;19.498;2022-09-09T07:18:58;4.20;;;2.13;;
45136;SDS011;30894;51.740;19.498;2022-09-09T07:21:26;3.28;;;1.92;;
45136;SDS011;30894;51.740;19.498;2022-09-09T07:23:54;5.65;;;2.47;;
45136;SDS011;30894;51.740;19.498;2022-09-09T07:26:22;7.97;;;2.20;;
45136;SDS011;30894;51.740;19.498;2022-09-09T07:28:50;8.95;;;2.35;;
45136;SDS011;30894;51.740;19.498;2022-09-09T07:31:18;3.40;;;2.00;;
45136;SDS011;30894;51.740;19.498;2022-09-09T07:33:50;3.08;;;1.80;;
45136;SDS011;30894;51.740;19.498;2022-09-09T07:36:20;6.93;;;2.60;;
45136;SDS011;30894;51.740;19.498;2022-09-09T07:38:50;3.90;;;1.92;;
45136;SDS011;30894;51.740;19.498;2022-09-09T07:43:51;5.40;;;2.58;;
45136;SDS011;30894;51.740;19.498;2022-09-09T07:46:22;6.60;;;2.50;;
45136;SDS011;30894;51.740;19.498;2022-09-09T07:48:53;2.53;;;1.77;;
45136;SDS011;30894;51.740;19.498;2022-09-09T07:51:25;9.13;;;2.35;;
45136;SDS011;30894;51.740;19.498;2022-09-09T07:54:05;3.97;;;2.10;;
45136;SDS011;30894;51.740;19.498;2022-09-09T07:56:34;4.05;;;2.53;;
45136;SDS011;30894;51.740;19.498;2022-09-09T07:59:01;3.20;;;2.10;;
45136;SDS011;30894;51.740;19.498;2022-09-09T08:01:30;3.47;;;2.08;;
45136;SDS011;30894;51.740;19.498;2022-09-09T08:04:05;2.58;;;1.70;;
45136;SDS011;30894;51.740;19.498;2022-09-09T08:06:41;4.40;;;2.20;;
45136;SDS011;30894;51.740;19.498;2022-09-09T08:09:19;3.55;;;2.28;;
45136;SDS011;30894;51.740;19.498;2022-09-09T08:11:50;1.98;;;1.20;;
45136;SDS011;30894;51.740;19.498;2022-09-09T08:14:16;4.05;;;2.10;;
45136;SDS011;30894;51.740;19.498;2022-09-09T08:16:43;4.60;;;2.63;;
45136;SDS011;30894;51.740;19.498;2022-09-09T08:19:12;3.10;;;2.17;;
45136;SDS011;30894;51.740;19.498;2022-09-09T08:21:40;4.53;;;2.25;;
45136;SDS011;30894;51.740;19.498;2022-09-09T08:24:08;3.35;;;2.50;;
45136;SDS011;30894;51.740;19.498;2022-09-09T08:26:39;3.40;;;2.40;;
45136;SDS011;30894;51.740;19.498;2022-09-09T08:29:08;3.65;;;1.90;;
45136;SDS011;30894;51.740;19.498;2022-09-09T08:31:37;4.07;;;1.80;;
45136;SDS011;30894;51.740;19.498;2022-09-09T08:34:19;3.80;;;2.28;;
45136;SDS011;30894;51.740;19.498;2022-09-09T08:36:47;2.10;;;1.75;;
45136;SDS011;30894;51.740;19.498;2022-09-09T08:39:14;3.63;;;2.30;;
45136;SDS011;30894;51.740;19.498;2022-09-09T08:50:29;4.05;;;2.58;;
45136;SDS011;30894;51.740;19.498;2022-09-09T08:55:45;3.95;;;2.85;;
45136;SDS011;30894;51.740;19.498;2022-09-09T08:58:27;3.97;;;2.53;;
45136;SDS011;30894;51.740;19.498;2022-09-09T09:07:03;3.95;;;2.65;;
45136;SDS011;30894;51.740;19.498;2022-09-09T09:13:07;4.65;;;2.55;;
45136;SDS011;30894;51.740;19.498;2022-09-09T09:15:46;3.05;;;2.22;;
45136;SDS011;30894;51.740;19.498;2022-09-09T09:18:25;2.95;;;2.08;;
45136;SDS011;30894;51.740;19.498;2022-09-09T09:23:39;3.25;;;2.28;;
45136;SDS011;30894;51.740;19.498;2022-09-09T09:26:11;3.15;;;1.92;;
45136;SDS011;30894;51.740;19.498;2022-09-09T09:28:38;4.03;;;1.80;;
45136;SDS011;30894;51.740;19.498;2022-09-09T09:31:11;2.17;;;1.80;;
45136;SDS011;30894;51.740;19.498;2022-09-09T09:33:52;4.82;;;2.10;;
45136;SDS011;30894;51.740;19.498;2022-09-09T09:36:19;2.95;;;2.40;;
45136;SDS011;30894;51.740;19.498;2022-09-09T09:38:56;3.55;;;2.83;;
45136;SDS011;30894;51.740;19.498;2022-09-09T09:41:30;2.72;;;2.03;;
45136;SDS011;30894;51.740;19.498;2022-09-09T09:44:04;2.30;;;2.00;;
45136;SDS011;30894;51.740;19.498;2022-09-09T09:46:32;1.80;;;1.60;;
45136;SDS011;30894;51.740;19.498;2022-09-09T09:48:59;1.67;;;1.40;;
45136;SDS011;30894;51.740;19.498;2022-09-09T09:51:31;3.63;;;1.63;;
45136;SDS011;30894;51.740;19.498;2022-09-09T09:54:08;2.70;;;1.77;;
45136;SDS011;30894;51.740;19.498;2022-09-09T09:56:44;1.70;;;1.40;;
45136;SDS011;30894;51.740;19.498;2022-09-09T10:02:13;2.15;;;1.67;;
45136;SDS011;30894;51.740;19.498;2022-09-09T10:05:02;3.35;;;1.90;;
45136;SDS011;30894;51.740;19.498;2022-09-09T10:07:38;2.58;;;1.63;;
45136;SDS011;30894;51.740;19.498;2022-09-09T10:10:04;3.45;;;2.35;;
45136;SDS011;30894;51.740;19.498;2022-09-09T10:27:30;5.07;;;3.38;;
45136;SDS011;30894;51.740;19.498;2022-09-09T10:30:19;3.92;;;2.75;;
45136;SDS011;30894;51.740;19.498;2022-09-09T10:38:47;4.28;;;2.58;;
45136;SDS011;30894;51.740;19.498;2022-09-09T10:44:27;4.00;;;2.40;;
45136;SDS011;30894;51.740;19.498;2022-09-09T10:55:43;4.10;;;2.70;;
45136;SDS011;30894;51.740;19.498;2022-09-09T10:58:38;3.85;;;2.72;;
45136;SDS011;30894;51.740;19.498;2022-09-09T11:04:21;6.28;;;2.40;;
45136;SDS011;30894;51.740;19.498;2022-09-09T11:07:18;4.57;;;2.40;;
45136;SDS011;30894;51.740;19.498;2022-09-09T11:09:58;3.20;;;2.40;;
45136;SDS011;30894;51.740;19.498;2022-09-09T11:12:33;3.47;;;2.65;;
45136;SDS011;30894;51.740;19.498;2022-09-09T11:15:08;3.83;;;2.35;;
45136;SDS011;30894;51.740;19.498;2022-09-09T11:17:54;2.63;;;2.08;;
45136;SDS011;30894;51.740;19.498;2022-09-09T11:20:24;3.65;;;2.10;;
45136;SDS011;30894;51.740;19.498;2022-09-09T11:23:02;3.47;;;2.60;;
45136;SDS011;30894;51.740;19.498;2022-09-09T11:25:41;5.10;;;2.22;;
45136;SDS011;30894;51.740;19.498;2022-09-09T11:34:24;2.42;;;1.80;;
45136;SDS011;30894;51.740;19.498;2022-09-09T11:40:20;3.15;;;2.20;;
45136;SDS011;30894;51.740;19.498;2022-09-09T11:42:49;3.20;;;2.20;;
45136;SDS011;30894;51.740;19.498;2022-09-09T11:45:29;2.55;;;2.10;;
45136;SDS011;30894;51.740;19.498;2022-09-09T11:47:57;5.03;;;2.10;;
45136;SDS011;30894;51.740;19.498;2022-09-09T11:52:50;3.30;;;2.25;;
45136;SDS011;30894;51.740;19.498;2022-09-09T11:55:29;2.22;;;1.90;;
45136;SDS011;30894;51.740;19.498;2022-09-09T12:00:40;2.70;;;1.80;;
45136;SDS011;30894;51.740;19.498;2022-09-09T12:06:15;2.47;;;1.90;;
45136;SDS011;30894;51.740;19.498;2022-09-09T12:08:54;1.90;;;1.65;;
45136;SDS011;30894;51.740;19.498;2022-09-09T12:14:02;3.00;;;1.80;;
45136;SDS011;30894;51.740;19.498;2022-09-09T12:16:29;2.45;;;1.83;;
45136;SDS011;30894;51.740;19.498;2022-09-09T12:21:40;5.07;;;1.83;;
45136;SDS011;30894;51.740;19.498;2022-09-09T12:24:34;2.95;;;2.08;;
45136;SDS011;30894;51.740;19.498;2022-09-09T12:27:28;2.77;;;2.07;;
45136;SDS011;30894;51.740;19.498;2022-09-09T12:30:07;2.70;;;1.60;;
45136;SDS011;30894;51.740;19.498;2022-09-09T12:32:41;2.03;;;1.42;;
45136;SDS011;30894;51.740;19.498;2022-09-09T12:35:14;3.85;;;1.90;;
45136;SDS011;30894;51.740;19.498;2022-09-09T12:37:55;2.03;;;1.80;;
45136;SDS011;30894;51.740;19.498;2022-09-09T12:40:26;3.22;;;1.90;;
45136;SDS011;30894;51.740;19.498;2022-09-09T12:43:00;2.72;;;1.73;;
45136;SDS011;30894;51.740;19.498;2022-09-09T12:45:31;2.33;;;1.65;;
45136;SDS011;30894;51.740;19.498;2022-09-09T12:50:47;4.28;;;1.55;;
45136;SDS011;30894;51.740;19.498;2022-09-09T12:53:23;1.83;;;1.65;;
45136;SDS011;30894;51.740;19.498;2022-09-09T12:58:45;2.55;;;1.55;;
45136;SDS011;30894;51.740;19.498;2022-09-09T13:01:34;1.40;;;1.30;;
45136;SDS011;30894;51.740;19.498;2022-09-09T13:04:00;2.97;;;1.70;;
45136;SDS011;30894;51.740;19.498;2022-09-09T13:06:31;1.73;;;1.52;;
45136;SDS011;30894;51.740;19.498;2022-09-09T13:08:59;2.33;;;1.80;;
45136;SDS011;30894;51.740;19.498;2022-09-09T13:14:05;3.45;;;1.90;;
45136;SDS011;30894;51.740;19.498;2022-09-09T13:16:33;3.78;;;1.98;;
45136;SDS011;30894;51.740;19.498;2022-09-09T13:19:07;2.60;;;1.60;;
45136;SDS011;30894;51.740;19.498;2022-09-09T13:21:39;2.17;;;1.60;;
45136;SDS011;30894;51.740;19.498;2022-09-09T13:24:06;1.77;;;1.50;;
45136;SDS011;30894;51.740;19.498;2022-09-09T13:26:57;4.03;;;1.33;;
45136;SDS011;30894;51.740;19.498;2022-09-09T13:29:29;3.50;;;1.00;;
45136;SDS011;30894;51.740;19.498;2022-09-09T13:32:04;1.65;;;1.08;;
45136;SDS011;30894;51.740;19.498;2022-09-09T13:34:33;1.75;;;0.93;;
45136;SDS011;30894;51.740;19.498;2022-09-09T13:37:09;1.92;;;1.30;;
45136;SDS011;30894;51.740;19.498;2022-09-09T13:40:03;1.92;;;1.30;;
45136;SDS011;30894;51.740;19.498;2022-09-09T13:42:32;1.20;;;1.08;;
45136;SDS011;30894;51.740;19.498;2022-09-09T13:45:03;2.13;;;1.30;;
45136;SDS011;30894;51.740;19.498;2022-09-09T13:47:31;1.45;;;1.17;;
45136;SDS011;30894;51.740;19.498;2022-09-09T13:52:54;1.33;;;1.20;;
45136;SDS011;30894;51.740;19.498;2022-09-09T13:55:26;1.67;;;1.25;;
45136;SDS011;30894;51.740;19.498;2022-09-09T13:57:54;1.45;;;1.00;;
45136;SDS011;30894;51.740;19.498;2022-09-09T14:00:24;1.30;;;0.98;;
45136;SDS011;30894;51.740;19.498;2022-09-09T14:02:50;1.27;;;1.17;;
45136;SDS011;30894;51.740;19.498;2022-09-09T14:05:17;1.50;;;1.30;;
45136;SDS011;30894;51.740;19.498;2022-09-09T14:07:44;1.40;;;1.30;;
45136;SDS011;30894;51.740;19.498;2022-09-09T14:10:11;3.05;;;1.63;;
45136;SDS011;30894;51.740;19.498;2022-09-09T14:12:37;1.73;;;1.38;;
45136;SDS011;30894;51.740;19.498;2022-09-09T14:15:04;1.98;;;1.60;;
45136;SDS011;30894;51.740;19.498;2022-09-09T14:17:32;1.80;;;1.17;;
45136;SDS011;30894;51.740;19.498;2022-09-09T14:20:02;1.40;;;1.30;;
45136;SDS011;30894;51.740;19.498;2022-09-09T14:22:33;4.37;;;1.50;;
45136;SDS011;30894;51.740;19.498;2022-09-09T14:24:59;3.28;;;1.90;;
45136;SDS011;30894;51.740;19.498;2022-09-09T14:27:25;1.55;;;1.30;;
45136;SDS011;30894;51.740;19.498;2022-09-09T14:29:52;1.55;;;1.20;;
45136;SDS011;30894;51.740;19.498;2022-09-09T14:32:18;1.40;;;1.20;;
45136;SDS011;30894;51.740;19.498;2022-09-09T14:34:44;1.60;;;1.30;;
45136;SDS011;30894;51.740;19.498;2022-09-09T14:37:11;2.13;;;1.33;;
45136;SDS011;30894;51.740;19.498;2022-09-09T14:39:36;1.83;;;1.45;;
45136;SDS011;30894;51.740;19.498;2022-09-09T14:42:03;1.90;;;1.67;;
45136;SDS011;30894;51.740;19.498;2022-09-09T14:44:30;4.60;;;1.55;;
45136;SDS011;30894;51.740;19.498;2022-09-09T14:46:56;1.80;;;1.27;;
45136;SDS011;30894;51.740;19.498;2022-09-09T14:49:21;1.67;;;1.35;;
45136;SDS011;30894;51.740;19.498;2022-09-09T14:51:48;3.40;;;1.65;;
45136;SDS011;30894;51.740;19.498;2022-09-09T14:54:14;1.95;;;1.70;;
45136;SDS011;30894;51.740;19.498;2022-09-09T14:56:41;1.77;;;1.40;;
45136;SDS011;30894;51.740;19.498;2022-09-09T14:59:07;1.80;;;1.40;;
45136;SDS011;30894;51.740;19.498;2022-09-09T15:01:33;4.32;;;1.63;;
45136;SDS011;30894;51.740;19.498;2022-09-09T15:04:00;2.08;;;1.67;;
45136;SDS011;30894;51.740;19.498;2022-09-09T15:06:29;2.35;;;1.58;;
45136;SDS011;30894;51.740;19.498;2022-09-09T15:09:03;3.75;;;2.03;;
45136;SDS011;30894;51.740;19.498;2022-09-09T15:11:32;3.08;;;1.60;;
45136;SDS011;30894;51.740;19.498;2022-09-09T15:14:03;1.80;;;1.50;;
45136;SDS011;30894;51.740;19.498;2022-09-09T15:16:30;1.80;;;1.35;;
45136;SDS011;30894;51.740;19.498;2022-09-09T15:18:58;2.35;;;1.50;;
45136;SDS011;30894;51.740;19.498;2022-09-09T15:21:32;1.70;;;1.52;;
45136;SDS011;30894;51.740;19.498;2022-09-09T15:24:01;3.03;;;2.08;;
45136;SDS011;30894;51.740;19.498;2022-09-09T15:26:27;2.50;;;2.00;;
45136;SDS011;30894;51.740;19.498;2022-09-09T15:28:55;3.03;;;2.30;;
45136;SDS011;30894;51.740;19.498;2022-09-09T15:31:25;3.90;;;1.77;;
45136;SDS011;30894;51.740;19.498;2022-09-09T15:33:59;2.33;;;1.80;;
45136;SDS011;30894;51.740;19.498;2022-09-09T15:36:42;3.35;;;2.25;;
45136;SDS011;30894;51.740;19.498;2022-09-09T15:39:12;3.47;;;2.15;;
45136;SDS011;30894;51.740;19.498;2022-09-09T15:41:42;4.03;;;2.05;;
45136;SDS011;30894;51.740;19.498;2022-09-09T15:44:09;4.75;;;2.83;;
45136;SDS011;30894;51.740;19.498;2022-09-09T15:46:41;2.83;;;2.00;;
45136;SDS011;30894;51.740;19.498;2022-09-09T15:49:16;3.05;;;1.90;;
45136;SDS011;30894;51.740;19.498;2022-09-09T15:51:46;3.45;;;2.20;;
45136;SDS011;30894;51.740;19.498;2022-09-09T15:54:24;3.97;;;2.78;;
45136;SDS011;30894;51.740;19.498;2022-09-09T15:56:54;2.88;;;2.10;;
45136;SDS011;30894;51.740;19.498;2022-09-09T15:59:23;3.13;;;2.42;;
45136;SDS011;30894;51.740;19.498;2022-09-09T16:01:52;4.47;;;2.65;;
45136;SDS011;30894;51.740;19.498;2022-09-09T16:04:18;3.97;;;2.40;;
45136;SDS011;30894;51.740;19.498;2022-09-09T16:06:55;3.60;;;2.40;;
45136;SDS011;30894;51.740;19.498;2022-09-09T16:09:24;4.07;;;2.88;;
45136;SDS011;30894;51.740;19.498;2022-09-09T16:11:52;4.15;;;3.13;;
45136;SDS011;30894;51.740;19.498;2022-09-09T16:16:54;4.13;;;3.10;;
45136;SDS011;30894;51.740;19.498;2022-09-09T16:19:21;8.45;;;3.47;;
45136;SDS011;30894;51.740;19.498;2022-09-09T16:21:48;5.53;;;3.17;;
45136;SDS011;30894;51.740;19.498;2022-09-09T16:24:16;5.05;;;3.45;;
45136;SDS011;30894;51.740;19.498;2022-09-09T16:26:45;6.18;;;3.40;;
45136;SDS011;30894;51.740;19.498;2022-09-09T16:29:14;6.18;;;3.47;;
45136;SDS011;30894;51.740;19.498;2022-09-09T16:31:44;5.03;;;3.17;;
45136;SDS011;30894;51.740;19.498;2022-09-09T16:34:13;9.93;;;2.92;;
45136;SDS011;30894;51.740;19.498;2022-09-09T16:36:44;5.88;;;3.22;;
45136;SDS011;30894;51.740;19.498;2022-09-09T16:39:11;6.57;;;3.03;;
45136;SDS011;30894;51.740;19.498;2022-09-09T16:41:43;6.60;;;3.60;;
45136;SDS011;30894;51.740;19.498;2022-09-09T16:44:11;7.43;;;4.15;;
45136;SDS011;30894;51.740;19.498;2022-09-09T16:46:39;10.82;;;7.13;;
45136;SDS011;30894;51.740;19.498;2022-09-09T16:49:08;10.52;;;4.63;;
45136;SDS011;30894;51.740;19.498;2022-09-09T16:51:43;8.10;;;4.70;;
45136;SDS011;30894;51.740;19.498;2022-09-09T16:54:18;8.63;;;4.43;;
45136;SDS011;30894;51.740;19.498;2022-09-09T16:56:48;10.60;;;5.75;;
45136;SDS011;30894;51.740;19.498;2022-09-09T16:59:16;11.73;;;5.40;;
45136;SDS011;30894;51.740;19.498;2022-09-09T17:01:46;9.77;;;4.68;;
45136;SDS011;30894;51.740;19.498;2022-09-09T17:04:16;9.52;;;4.82;;
45136;SDS011;30894;51.740;19.498;2022-09-09T17:06:50;11.85;;;5.15;;
45136;SDS011;30894;51.740;19.498;2022-09-09T17:09:18;9.48;;;4.97;;
45136;SDS011;30894;51.740;19.498;2022-09-09T17:11:47;9.25;;;5.28;;
45136;SDS011;30894;51.740;19.498;2022-09-09T17:14:17;13.95;;;6.00;;
45136;SDS011;30894;51.740;19.498;2022-09-09T17:16:45;14.27;;;6.22;;
45136;SDS011;30894;51.740;19.498;2022-09-09T17:19:12;10.15;;;5.82;;
45136;SDS011;30894;51.740;19.498;2022-09-09T17:21:44;10.38;;;5.55;;
45136;SDS011;30894;51.740;19.498;2022-09-09T17:24:12;9.85;;;5.45;;
45136;SDS011;30894;51.740;19.498;2022-09-09T17:26:42;8.48;;;5.38;;
45136;SDS011;30894;51.740;19.498;2022-09-09T17:29:13;12.38;;;5.88;;
45136;SDS011;30894;51.740;19.498;2022-09-09T17:31:39;11.90;;;5.65;;
45136;SDS011;30894;51.740;19.498;2022-09-09T17:34:08;10.48;;;5.57;;